DW5450 Weather Reports


Display with metric or nautical units.
time (UTC)temp
F
wind
direction
speed
MPH
gust
MPH
rain 1hr
in
rain 24hr
in
rain mn
in
humidity
%
barometer
mb
20240222231538 75 157 2.0 7.0 0.00 0.00 0.00 69 1014.1
20240222230043 75 154 3.0 7.0 0.00 0.00 0.00 70 1014.0
20240222224536 75 168 2.0 8.0 0.00 0.00 0.00 70 1014.1
20240222223035 75 115 3.0 9.0 0.00 0.00 0.00 70 1014.2
20240222221542 75 149 5.0 9.0 0.00 0.00 0.00 69 1014.4
20240222220039 75 130 3.0 10.0 0.00 0.00 0.00 70 1014.5
20240222214530 75 155 5.0 9.0 0.00 0.00 0.00 69 1014.7
20240222213029 75 180 2.0 9.0 0.00 0.00 0.00 69 1014.8
20240222211534 76 179 4.0 9.0 0.00 0.00 0.00 68 1015.1
20240222210026 76 136 4.0 13.0 0.00 0.00 0.00 66 1015.3
20240222204522 75 203 4.0 10.0 0.00 0.00 0.00 62 1015.6
20240222203020 75 198 4.0 11.0 0.00 0.00 0.00 64 1016.0
20240222201533 75 171 7.0 11.0 0.00 0.00 0.00 62 1016.2
20240222200021 76 150 5.0 14.0 0.00 0.00 0.00 63 1016.5
20240222194515 76 153 4.0 12.0 0.00 0.00 0.00 63 1016.6
20240222193014 76 113 4.0 10.0 0.00 0.00 0.00 63 1016.9
20240222191514 75 175 3.0 12.0 0.00 0.00 0.00 64 1017.1
20240222190013 76 182 5.0 10.0 0.00 0.00 0.00 63 1017.3
20240222184513 76 111 3.0 10.0 0.00 0.00 0.00 63 1017.5
20240222183012 77 170 6.0 11.0 0.00 0.00 0.00 61 1017.7
20240222181515 78 149 5.0 8.0 0.00 0.00 0.00 58 1017.9
20240222180009 79 35 1.0 4.0 0.00 0.00 0.00 54 1017.9
20240222174510 78 355 1.0 6.0 0.00 0.00 0.00 54 1018.0
20240222173003 77 333 3.0 9.0 0.00 0.00 0.00 56 1018.4
20240222171559 76 44 3.0 8.0 0.00 0.00 0.00 58 1018.3
20240222170054 74 355 3.0 8.0 0.00 0.00 0.00 60 1018.5
20240222164551 73 355 2.0 12.0 0.00 0.00 0.00 62 1018.4
20240222163047 72 5 3.0 11.0 0.00 0.00 0.00 64 1018.4
20240222161544 70 333 3.0 10.0 0.00 0.00 0.00 66 1018.3
20240222160037 68 360 2.0 8.0 0.00 0.00 0.00 72 1018.1
20240222154545 65 323 1.0 4.0 0.00 0.00 0.00 79 1017.9
20240222153033 62 355 0.0 4.0 0.00 0.00 0.00 82 1017.8
20240222151535 60 9 0.0 3.0 0.00 0.00 0.00 82 1017.7
20240222150030 59 315 0.0 3.0 0.00 0.00 0.00 84 1017.8
20240222144529 57 345 0.0 3.0 0.00 0.00 0.00 85 1017.5
20240222143027 56 330 0.0 3.0 0.00 0.00 0.00 85 1017.5
20240222141527 56 5 0.0 3.0 0.00 0.00 0.00 85 1017.1
20240222140035 55 14 1.0 5.0 0.00 0.00 0.00 85 1017.3
20240222134525 56 5 1.0 5.0 0.00 0.00 0.00 84 1017.3
20240222133028 56 331 0.0 5.0 0.00 0.00 0.00 85 1017.2
20240222131523 56 331 0.0 4.0 0.00 0.00 0.00 84 1017.0
20240222130021 56 331 1.0 3.0 0.00 0.00 0.00 84 1016.8
20240222124520 57 330 0.0 5.0 0.00 0.00 0.00 84 1016.7
20240222123025 57 335 1.0 4.0 0.00 0.00 0.00 85 1016.6
20240222121521 57 331 0.0 2.0 0.00 0.00 0.00 85 1016.6
20240222120017 57 5 0.0 2.0 0.00 0.00 0.00 85 1016.4
20240222114517 57 344 1.0 3.0 0.00 0.00 0.00 85 1016.3
20240222113015 58 322 0.0 4.0 0.00 0.00 0.00 84 1016.6
20240222111513 58 344 0.0 4.0 0.00 0.00 0.00 84 1016.5
20240222110012 58 355 1.0 3.0 0.00 0.00 0.00 83 1016.5
20240222104509 59 355 0.0 4.0 0.00 0.00 0.00 83 1016.4
20240222103007 59 355 0.0 3.0 0.00 0.00 0.00 83 1016.6
20240222101506 60 348 0.0 3.0 0.00 0.00 0.00 82 1016.6
20240222100003 60 13 0.0 3.0 0.00 0.00 0.00 81 1016.6
20240222094600 61 360 0.0 3.0 0.00 0.00 0.00 80 1016.7
20240222093057 62 344 0.0 1.0 0.00 0.00 0.00 79 1016.8
20240222091556 64 343 1.0 3.0 0.00 0.00 0.00 77 1016.8
20240222090054 64 317 2.0 8.0 0.00 0.00 0.00 77 1017.0
20240222084553 64 346 4.0 8.0 0.00 0.00 0.00 78 1017.1
20240222083055 64 320 3.0 8.0 0.00 0.00 0.00 78 1017.2
20240222081551 64 340 2.0 9.0 0.00 0.00 0.00 79 1017.4
20240222080048 64 315 0.0 7.0 0.00 0.00 0.00 80 1017.5
20240222074546 64 305 1.0 7.0 0.00 0.00 0.00 80 1017.4
20240222074518 64 317 1.0 7.0 0.00 0.00 0.00 80 1017.4
20240222073046 64 323 1.0 8.0 0.00 0.00 0.00 80 1017.3
20240222071550 63 5 1.0 5.0 0.00 0.00 0.00 81 1017.4
20240222070040 62 18 0.0 4.0 0.00 0.00 0.00 80 1017.4
20240222064540 63 5 1.0 5.0 0.00 0.00 0.00 80 1017.4
20240222063040 63 339 0.0 4.0 0.00 0.00 0.00 79 1017.4
20240222061541 62 360 1.0 4.0 0.00 0.00 0.00 79 1017.4
20240222060039 62 15 0.0 2.0 0.00 0.00 0.00 76 1017.2
20240222054543 63 15 0.0 2.0 0.00 0.00 0.00 76 1017.2
20240222053038 63 355 0.0 3.0 0.00 0.00 0.00 75 1017.4
20240222051537 63 348 0.0 4.0 0.00 0.00 0.00 75 1017.4
20240222050041 62 5 1.0 4.0 0.00 0.00 0.00 75 1017.4
20240222044536 62 5 0.0 3.0 0.00 0.00 0.00 76 1017.4
20240222043045 63 5 0.0 3.0 0.00 0.00 0.00 77 1017.4
20240222041537 64 5 0.0 2.0 0.00 0.00 0.00 78 1017.4
20240222040041 64 9 0.0 2.0 0.00 0.00 0.00 77 1017.4
20240222034534 65 162 0.0 0.0 0.00 0.00 0.00 78 1017.4
20240222033033 66 162 0.0 0.0 0.00 0.00 0.00 77 1017.4
20240222031535 66 162 0.0 2.0 0.00 0.00 0.00 77 1017.2
20240222030034 68 162 0.0 0.0 0.00 0.00 0.00 75 1017.1
20240222024533 68 162 0.0 0.0 0.00 0.00 0.00 74 1016.9
20240222023031 69 162 0.0 0.0 0.00 0.00 0.00 73 1016.9
20240222021533 70 162 0.0 0.0 0.00 0.00 0.00 72 1016.8
20240222020029 70 162 0.0 0.0 0.00 0.00 0.00 71 1016.8
20240222014535 71 162 0.0 0.0 0.00 0.00 0.00 70 1016.7
20240222013028 72 162 0.0 1.0 0.00 0.00 0.00 68 1016.4
20240222011541 73 162 0.0 1.0 0.00 0.00 0.00 67 1016.5
20240222010027 74 162 0.0 2.0 0.00 0.00 0.00 65 1016.5
20240222004527 74 155 1.0 4.0 0.00 0.00 0.00 64 1016.3
20240222003027 75 138 0.0 4.0 0.00 0.00 0.00 63 1016.4
20240222001526 75 115 2.0 5.0 0.00 0.00 0.00 63 1016.4
20240222000025 75 152 2.0 7.0 0.00 0.00 0.00 61 1016.4
20240221234534 76 159 2.0 7.0 0.00 0.00 0.00 60 1016.6
20240221233025 76 137 2.0 9.0 0.00 0.00 0.00 62 1016.6